createdAt,value
2023-04-23T00:00:23.520Z,98199.72
2023-04-23T00:02:57.982Z,98193.22
2023-04-23T00:05:29.800Z,98190.53
2023-04-23T00:08:02.165Z,98191.63
2023-04-23T00:10:31.055Z,98188.97
2023-04-23T00:13:00.526Z,98181.88
2023-04-23T00:15:30.154Z,98186.25
2023-04-23T00:18:00.255Z,98178.06
2023-04-23T00:20:29.017Z,98180.47
2023-04-23T00:22:57.696Z,98179.75
2023-04-23T00:25:26.291Z,98174.31
2023-04-23T00:27:54.975Z,98173.78
2023-04-23T00:30:23.836Z,98176.72
2023-04-23T00:32:52.654Z,98176.47
2023-04-23T00:35:23.498Z,98178.09
2023-04-23T00:37:52.184Z,98179.28
2023-04-23T00:40:23.683Z,98177.16
2023-04-23T00:42:54.066Z,98175.03
2023-04-23T00:45:23.082Z,98180.72
2023-04-23T00:47:52.584Z,98175.63
2023-04-23T00:50:22.841Z,98179.41
2023-04-23T00:52:51.583Z,98177.53
2023-04-23T00:55:21.498Z,98179.91
2023-04-23T00:57:51.282Z,98172.31
2023-04-23T01:00:20.746Z,98175.03
2023-04-23T01:02:53.168Z,98178.31
2023-04-23T01:05:26.607Z,98172.94
2023-04-23T01:07:55.685Z,98166.19
2023-04-23T01:10:24.956Z,98170.81
2023-04-23T01:12:54.735Z,98169.44
2023-04-23T01:15:23.619Z,98172.34
2023-04-23T01:17:53.819Z,98169.13
2023-04-23T01:20:24.316Z,98166.19
2023-04-23T01:22:54.752Z,98169.75
2023-04-23T01:25:24.685Z,98168.63
2023-04-23T01:27:53.912Z,98173.22
2023-04-23T01:30:23.594Z,98168.16
2023-04-23T01:32:52.960Z,98171.91
2023-04-23T01:35:21.764Z,98171.41
2023-04-23T01:37:55.304Z,98170.84
2023-04-23T01:40:24.474Z,98168.97
2023-04-23T01:42:53.285Z,98170.03
2023-04-23T01:45:22.369Z,98175.19
2023-04-23T01:47:51.765Z,98166.03
2023-04-23T01:50:23.321Z,98169.25
2023-04-23T01:52:53.782Z,98169.25
2023-04-23T01:55:23.760Z,98163.31
2023-04-23T01:57:52.479Z,98159.81
2023-04-23T02:00:21.952Z,98166.28
2023-04-23T02:02:52.933Z,98164.41
2023-04-23T02:05:22.943Z,98166.00
2023-04-23T02:07:54.209Z,98158.78
2023-04-23T02:10:23.395Z,98165.47
2023-04-23T02:12:52.103Z,98164.94
2023-04-23T02:15:21.507Z,98164.38
2023-04-23T02:17:51.321Z,98153.13
2023-04-23T02:20:21.832Z,98154.19
2023-04-23T02:22:53.091Z,98157.69
2023-04-23T02:25:22.535Z,98162.25
2023-04-23T02:27:51.205Z,98159.56
2023-04-23T02:30:20.016Z,98163.88
2023-04-23T02:32:48.719Z,98165.75
2023-04-23T02:35:17.413Z,98160.91
2023-04-23T02:37:46.097Z,98160.09
2023-04-23T02:40:16.423Z,98154.44
2023-04-23T02:42:45.135Z,98160.09
2023-04-23T02:45:13.956Z,98154.41
2023-04-23T02:47:42.812Z,98149.84
2023-04-23T02:50:12.160Z,98150.94
2023-04-23T02:52:41.365Z,98147.72
2023-04-23T02:55:11.974Z,98147.44
2023-04-23T02:57:42.380Z,98152.81
2023-04-23T03:00:14.891Z,98158.72
2023-04-23T03:02:45.486Z,98149.88
2023-04-23T03:05:14.518Z,98150.41
2023-04-23T03:07:43.877Z,98139.94
2023-04-23T03:10:12.956Z,98127.28
2023-04-23T03:12:43.137Z,98127.81
2023-04-23T03:15:12.842Z,98122.16
2023-04-23T03:17:41.826Z,98121.06
2023-04-23T03:20:11.878Z,98115.66
2023-04-23T03:22:42.224Z,98104.13
2023-04-23T03:25:11.593Z,98096.03
2023-04-23T03:27:43.622Z,98090.66
2023-04-23T03:30:13.459Z,98080.69
2023-04-23T03:32:42.512Z,98083.69
2023-04-23T03:35:11.752Z,98077.00
2023-04-23T03:37:44.961Z,98077.78
2023-04-23T03:40:16.066Z,98086.16
2023-04-23T03:42:49.735Z,98085.34
2023-04-23T03:45:22.742Z,98088.59
2023-04-23T03:47:51.547Z,98079.72
2023-04-23T03:50:21.166Z,98081.31
2023-04-23T03:53:02.868Z,98083.75
2023-04-23T03:55:57.936Z,98085.06
2023-04-23T03:58:28.720Z,98086.66
2023-04-23T04:00:58.727Z,98083.69
2023-04-23T04:03:27.704Z,98093.94
2023-04-23T04:05:57.999Z,98096.09
2023-04-23T04:08:29.760Z,98098.78
2023-04-23T04:11:00.293Z,98099.03
2023-04-23T04:13:32.620Z,98101.19
2023-04-23T04:16:03.448Z,98103.09
2023-04-23T04:18:33.313Z,98104.69
2023-04-23T04:21:02.421Z,98106.03
2023-04-23T04:23:31.444Z,98118.66
2023-04-23T04:26:00.681Z,98118.13
2023-04-23T04:28:29.501Z,98118.13
2023-04-23T04:31:00.595Z,98121.31
2023-04-23T04:33:29.332Z,98122.41
2023-04-23T04:35:59.740Z,98118.13
2023-04-23T04:38:29.895Z,98122.94
2023-04-23T04:41:00.184Z,98118.63
2023-04-23T04:43:29.050Z,98115.34
2023-04-23T04:45:59.423Z,98125.03
2023-04-23T04:48:28.375Z,98121.78
2023-04-23T04:50:57.723Z,98120.94
2023-04-23T04:53:26.463Z,98123.38
2023-04-23T04:55:55.173Z,98123.09
2023-04-23T04:58:24.924Z,98123.88
2023-04-23T05:00:54.709Z,98128.16
2023-04-23T05:03:25.398Z,98128.16
2023-04-23T05:05:56.653Z,98129.78
2023-04-23T05:08:25.819Z,98124.38
2023-04-23T05:10:56.556Z,98129.47
2023-04-23T05:13:26.197Z,98135.41
2023-04-23T05:15:55.388Z,98138.63
2023-04-23T05:18:25.570Z,98141.28
2023-04-23T05:20:54.493Z,98149.09
2023-04-23T05:23:23.573Z,98149.09
2023-04-23T05:25:56.232Z,98149.66
2023-04-23T05:28:25.066Z,98141.84
2023-04-23T05:30:54.359Z,98143.72
2023-04-23T05:33:25.840Z,98151.75
2023-04-23T05:35:57.342Z,98150.44
2023-04-23T05:38:26.263Z,98153.38
2023-04-23T05:40:56.172Z,98153.88
2023-04-23T05:43:26.699Z,98152.03
2023-04-23T05:45:56.847Z,98154.44
2023-04-23T05:48:27.403Z,98145.78
2023-04-23T05:50:56.823Z,98155.47
2023-04-23T05:53:26.921Z,98158.69
2023-04-23T05:55:55.664Z,98152.44
2023-04-23T05:58:25.018Z,98148.91
2023-04-23T06:00:55.332Z,98150.50
2023-04-23T06:03:27.103Z,98156.38
2023-04-23T06:05:56.224Z,98152.06
2023-04-23T06:08:25.390Z,98155.50
2023-04-23T06:10:56.099Z,98158.41
2023-04-23T06:13:24.770Z,98154.28
2023-04-23T06:15:53.604Z,98162.81
2023-04-23T06:18:22.251Z,98152.25
2023-04-23T06:20:52.539Z,98152.38
2023-04-23T06:23:21.368Z,98152.59
2023-04-23T06:25:51.315Z,98153.50
2023-04-23T06:28:20.020Z,98166.25
2023-04-23T06:31:09.775Z,98172.22
2023-04-23T06:33:39.013Z,98176.72
2023-04-23T06:36:11.134Z,98169.94
2023-04-23T06:38:40.090Z,98159.84
2023-04-23T06:41:09.096Z,98182.78
2023-04-23T06:43:38.234Z,98165.50
2023-04-23T06:46:23.320Z,98166.53
2023-04-23T06:48:52.366Z,98186.50
2023-04-23T06:51:23.918Z,98174.56
2023-04-23T06:53:52.863Z,98174.78
2023-04-23T06:56:22.672Z,98173.13
2023-04-23T06:58:51.744Z,98178.38
2023-04-23T07:01:23.382Z,98178.56
2023-04-23T07:03:54.685Z,98185.56
2023-04-23T07:06:24.874Z,98179.94
2023-04-23T07:08:56.672Z,98181.78
2023-04-23T07:11:26.165Z,98181.88
2023-04-23T07:13:55.040Z,98174.31
2023-04-23T07:16:24.617Z,98174.38
2023-04-23T07:18:54.800Z,98185.84
2023-04-23T07:21:27.644Z,98185.84
2023-04-23T07:23:58.344Z,98182.03
2023-04-23T07:26:28.211Z,98188.44
2023-04-23T07:29:10.747Z,98189.03
2023-04-23T07:31:41.661Z,98185.59
2023-04-23T07:34:11.488Z,98188.81
2023-04-23T07:36:41.653Z,98194.25
2023-04-23T07:39:10.302Z,98189.75
2023-04-23T07:41:39.112Z,98188.44
2023-04-23T07:44:08.212Z,98183.19
2023-04-23T07:46:37.060Z,98188.91
2023-04-23T07:49:07.438Z,98186.38
2023-04-23T07:51:37.421Z,98177.66
2023-04-23T07:54:07.881Z,98188.22
2023-04-23T07:56:37.085Z,98189.25
2023-04-23T07:59:06.160Z,98189.03
2023-04-23T08:01:36.075Z,98193.56
2023-04-23T08:04:05.074Z,98185.28
2023-04-23T08:06:35.714Z,98184.34
2023-04-23T08:09:06.560Z,98188.88
2023-04-23T08:11:36.871Z,98180.25
2023-04-23T08:14:06.094Z,98170.13
2023-04-23T08:16:37.111Z,98181.56
2023-04-23T08:19:08.917Z,98182.25
2023-04-23T08:21:39.012Z,98179.19
2023-04-23T08:24:09.788Z,98188.59
2023-04-23T08:26:40.009Z,98185.88
2023-04-23T08:29:10.989Z,98188.44
2023-04-23T08:31:40.364Z,98191.34
2023-04-23T08:34:09.208Z,98189.97
2023-04-23T08:36:38.225Z,98190.88
2023-04-23T08:39:08.150Z,98204.78
2023-04-23T08:41:43.575Z,98207.78
2023-04-23T08:44:19.876Z,98218.38
2023-04-23T08:46:50.049Z,98216.13
2023-04-23T08:49:20.422Z,98219.38
2023-04-23T08:51:53.639Z,98216.66
2023-04-23T08:54:27.993Z,98217.97
2023-04-23T08:57:01.006Z,98222.66
2023-04-23T08:59:32.937Z,98222.56
2023-04-23T09:02:08.078Z,98224.81
2023-04-23T09:04:37.436Z,98229.81
2023-04-23T09:07:11.215Z,98221.69
2023-04-23T09:09:41.826Z,98230.66
2023-04-23T09:12:12.175Z,98223.53
2023-04-23T09:14:41.205Z,98221.56
2023-04-23T09:17:11.112Z,98230.06
2023-04-23T09:19:41.605Z,98229.19
2023-04-23T09:22:10.594Z,98226.06
2023-04-23T09:24:43.478Z,98231.09
2023-04-23T09:27:13.927Z,98231.16
2023-04-23T09:29:48.329Z,98234.44
2023-04-23T09:32:17.066Z,98241.50
2023-04-23T09:34:45.776Z,98226.63
2023-04-23T09:37:16.123Z,98235.63
2023-04-23T09:39:45.358Z,98229.47
2023-04-23T09:42:17.793Z,98232.06
2023-04-23T09:44:46.671Z,98235.31
2023-04-23T09:47:15.885Z,98232.31
2023-04-23T09:49:49.148Z,98227.31
2023-04-23T09:52:19.372Z,98232.56
2023-04-23T09:54:48.367Z,98230.94
2023-04-23T09:57:19.110Z,98231.25
2023-04-23T09:59:51.554Z,98232.13
2023-04-23T10:02:30.136Z,98232.66
2023-04-23T10:05:10.148Z,98226.13
2023-04-23T10:07:46.642Z,98232.84
2023-04-23T10:10:17.136Z,98232.56
2023-04-23T10:12:54.190Z,98228.81
2023-04-23T10:15:27.861Z,98225.72
2023-04-23T10:17:59.218Z,98219.47
2023-04-23T10:20:31.029Z,98226.97
2023-04-23T10:23:02.551Z,98226.88
2023-04-23T10:25:32.945Z,98224.91
2023-04-23T10:28:08.298Z,98225.72
2023-04-23T10:30:38.763Z,98220.69
2023-04-23T10:33:18.728Z,98211.38
2023-04-23T10:35:59.226Z,98219.31
2023-04-23T10:38:29.442Z,98215.69
2023-04-23T10:41:02.678Z,98211.19
2023-04-23T10:43:33.310Z,98214.00
2023-04-23T10:46:06.024Z,98204.41
2023-04-23T10:49:07.337Z,98215.91
2023-04-23T10:54:15.170Z,98219.22
2023-04-23T10:56:44.990Z,98222.91
2023-04-23T10:59:23.917Z,98230.84
2023-04-23T11:02:02.598Z,98224.53
2023-04-23T11:04:34.917Z,98222.03
2023-04-23T11:07:08.300Z,98220.38
2023-04-23T11:09:44.689Z,98221.81
2023-04-23T11:12:37.723Z,98218.91
2023-04-23T11:15:19.785Z,98208.16
2023-04-23T11:18:04.126Z,98212.47
2023-04-23T11:20:33.041Z,98217.66
2023-04-23T11:23:03.819Z,98222.97
2023-04-23T11:25:32.693Z,98225.47
2023-04-23T11:28:02.619Z,98224.53
2023-04-23T11:30:33.715Z,98222.94
2023-04-23T11:33:04.553Z,98221.25
2023-04-23T11:35:40.630Z,98213.94
2023-04-23T11:38:11.207Z,98215.00
2023-04-23T11:40:42.801Z,98214.84
2023-04-23T11:43:11.543Z,98197.13
2023-04-23T11:45:41.820Z,98211.63
2023-04-23T11:48:11.626Z,98215.38
2023-04-23T11:50:43.174Z,98221.53
2023-04-23T11:53:14.275Z,98210.91
2023-04-23T11:55:45.940Z,98214.59
2023-04-23T11:58:20.660Z,98217.78
2023-04-23T12:00:59.643Z,98217.78
2023-04-23T12:03:29.353Z,98215.41
2023-04-23T12:06:00.550Z,98208.75
2023-04-23T12:08:36.202Z,98211.88
2023-04-23T12:11:06.862Z,98214.38
2023-04-23T12:13:36.017Z,98220.97
2023-04-23T12:16:08.610Z,98217.34
2023-04-23T12:18:44.540Z,98214.81
2023-04-23T12:21:14.766Z,98224.78
2023-04-23T12:23:45.689Z,98221.53
2023-04-23T12:26:17.110Z,98225.50
2023-04-23T12:28:51.295Z,98220.50
2023-04-23T12:31:27.679Z,98220.09
2023-04-23T12:34:06.756Z,98205.44
2023-04-23T12:36:37.916Z,98202.94
2023-04-23T12:39:30.977Z,98197.31
2023-04-23T12:42:05.298Z,98191.81
2023-04-23T12:44:36.800Z,98189.25
2023-04-23T12:47:11.219Z,98195.06
2023-04-23T12:49:43.329Z,98183.38
2023-04-23T12:52:13.823Z,98190.75
2023-04-23T12:54:45.326Z,98188.66
2023-04-23T12:57:21.816Z,98193.44
2023-04-23T12:59:52.143Z,98182.56
2023-04-23T13:02:24.618Z,98179.03
2023-04-23T13:05:01.278Z,98169.47
2023-04-23T13:07:31.408Z,98167.50
2023-04-23T13:10:01.066Z,98164.25
2023-04-23T13:12:31.081Z,98159.13
2023-04-23T13:15:01.331Z,98153.13
2023-04-23T13:17:34.642Z,98154.16
2023-04-23T13:20:05.594Z,98148.94
2023-04-23T13:22:34.736Z,98146.47
2023-04-23T13:25:07.849Z,98145.69
2023-04-23T13:28:04.096Z,98145.16
2023-04-23T13:31:12.016Z,98135.56
2023-04-23T13:33:43.871Z,98133.97
2023-04-23T13:36:26.379Z,98123.28
2023-04-23T13:38:55.438Z,98126.00
2023-04-23T13:41:24.136Z,98123.88
2023-04-23T13:43:52.913Z,98119.31
2023-04-23T13:46:22.004Z,98124.78
2023-04-23T13:49:17.841Z,98111.13
2023-04-23T13:51:46.539Z,98115.75
2023-04-23T13:54:15.244Z,98107.13
2023-04-23T13:56:44.153Z,98107.84
2023-04-23T13:59:19.972Z,98104.59
2023-04-23T14:01:50.367Z,98105.34
2023-04-23T14:04:22.786Z,98098.59
2023-04-23T14:06:52.050Z,98102.84
2023-04-23T14:09:22.502Z,98091.47
2023-04-23T14:11:51.904Z,98094.72
2023-04-23T14:14:20.904Z,98090.56
2023-04-23T14:16:49.781Z,98089.31
2023-04-23T14:19:19.912Z,98096.81
2023-04-23T14:21:48.746Z,98096.63
2023-04-23T14:24:24.570Z,98098.06
2023-04-23T14:26:53.636Z,98091.47
2023-04-23T14:29:32.778Z,98094.84
2023-04-23T14:32:02.044Z,98084.44
2023-04-23T14:34:32.436Z,98086.50
2023-04-23T14:37:01.516Z,98086.03
2023-04-23T14:39:30.514Z,98093.81
2023-04-23T14:41:59.365Z,98087.19
2023-04-23T14:44:28.144Z,98085.63
2023-04-23T14:46:58.459Z,98085.28
2023-04-23T14:49:29.129Z,98073.53
2023-04-23T14:51:59.611Z,98078.31
2023-04-23T14:54:33.680Z,98065.69
2023-04-23T14:57:04.460Z,98060.75
2023-04-23T14:59:33.265Z,98061.09
2023-04-23T15:02:03.576Z,98061.09
2023-04-23T15:04:32.870Z,98053.59
2023-04-23T15:07:05.625Z,98051.97
2023-04-23T15:09:36.087Z,98056.56
2023-04-23T15:12:43.902Z,98050.13
2023-04-23T15:15:43.057Z,98054.56
2023-04-23T15:18:18.676Z,98043.88
2023-04-23T15:20:48.043Z,98046.94
2023-04-23T15:23:26.067Z,98049.19
2023-04-23T15:25:55.689Z,98060.03
2023-04-23T15:28:25.385Z,98057.31
2023-04-23T15:30:55.094Z,98061.56
2023-04-23T15:33:27.202Z,98047.81
2023-04-23T15:35:59.401Z,98044.47
2023-04-23T15:38:30.111Z,98034.56
2023-04-23T15:41:01.021Z,98031.53
2023-04-23T15:43:29.748Z,98036.97
2023-04-23T15:46:05.846Z,98034.75
2023-04-23T15:48:34.960Z,98027.38
2023-04-23T15:51:06.384Z,98035.19
2023-04-23T15:53:37.444Z,98033.28
2023-04-23T15:56:06.601Z,98033.44
2023-04-23T15:58:35.802Z,98029.38
2023-04-23T16:01:07.558Z,98016.09
2023-04-23T16:03:37.283Z,98013.69
2023-04-23T16:06:07.189Z,98013.03
2023-04-23T16:08:38.352Z,98009.53
2023-04-23T16:11:08.931Z,97998.84
2023-04-23T16:13:38.903Z,97998.66
2023-04-23T16:16:08.173Z,97989.72
2023-04-23T16:18:37.256Z,97989.06
2023-04-23T16:21:06.668Z,97985.38
2023-04-23T16:23:37.468Z,97984.09
2023-04-23T16:26:08.786Z,97983.16
2023-04-23T16:28:37.840Z,97980.28
2023-04-23T16:31:07.302Z,97980.41
2023-04-23T16:33:42.154Z,97970.94
2023-04-23T16:36:13.367Z,97970.28
2023-04-23T16:38:49.261Z,97961.34
2023-04-23T16:41:20.521Z,97960.34
2023-04-23T16:43:49.348Z,97970.06
2023-04-23T16:46:18.337Z,97966.03
2023-04-23T16:48:47.448Z,97962.19
2023-04-23T16:51:17.036Z,97960.59
2023-04-23T16:53:47.191Z,97959.88
2023-04-23T16:56:16.750Z,97958.16
2023-04-23T16:58:45.632Z,97956.16
2023-04-23T17:01:14.350Z,97951.41
2023-04-23T17:03:43.497Z,97956.16
2023-04-23T17:06:26.396Z,97944.84
2023-04-23T17:08:58.835Z,97938.50
2023-04-23T17:11:28.840Z,97942.63
2023-04-23T17:13:59.083Z,97938.13
2023-04-23T17:16:28.146Z,97942.28
2023-04-23T17:18:57.690Z,97936.44
2023-04-23T17:21:27.695Z,97931.19
2023-04-23T17:23:58.540Z,97938.31
2023-04-23T17:26:27.653Z,97932.22
2023-04-23T17:28:59.591Z,97942.38
2023-04-23T17:31:28.537Z,97927.94
2023-04-23T17:33:58.867Z,97926.13
2023-04-23T17:36:28.071Z,97927.19
2023-04-23T17:39:04.945Z,97930.59
2023-04-23T17:41:33.922Z,97923.84
2023-04-23T17:44:03.038Z,97924.44
2023-04-23T17:46:33.806Z,97928.84
2023-04-23T17:49:02.965Z,97927.50
2023-04-23T17:51:31.694Z,97928.41
2023-04-23T17:54:02.117Z,97930.09
2023-04-23T17:56:33.786Z,97930.03
2023-04-23T17:59:02.948Z,97932.53
2023-04-23T18:01:32.041Z,97927.91
2023-04-23T18:04:01.551Z,97938.97
2023-04-23T18:06:30.930Z,97943.06
2023-04-23T18:08:59.789Z,97945.75
2023-04-23T18:11:28.821Z,97950.19
2023-04-23T18:14:00.162Z,97940.38
2023-04-23T18:16:30.443Z,97938.56
2023-04-23T18:18:59.121Z,97957.63
2023-04-23T18:21:29.356Z,97950.59
2023-04-23T18:23:58.670Z,97956.81
2023-04-23T18:26:29.268Z,97951.59
2023-04-23T18:28:59.533Z,97958.00
2023-04-23T18:31:28.409Z,97957.13
2023-04-23T18:34:03.207Z,97967.22
2023-04-23T18:36:33.955Z,97964.63
2023-04-23T18:39:03.595Z,97984.38
2023-04-23T18:41:32.485Z,97987.16
2023-04-23T18:44:02.726Z,97988.72
2023-04-23T18:46:32.327Z,97985.56
2023-04-23T18:49:06.116Z,97988.44
2023-04-23T18:51:44.988Z,97988.97
2023-04-23T18:54:15.144Z,97981.53
2023-04-23T18:56:43.885Z,97983.63
2023-04-23T18:59:15.034Z,97978.81
2023-04-23T19:01:46.329Z,97978.94
2023-04-23T19:04:15.765Z,97977.34
2023-04-23T19:06:44.664Z,97972.31
2023-04-23T19:09:13.399Z,97971.69
2023-04-23T19:11:42.138Z,97978.75
2023-04-23T19:14:10.902Z,97973.34
2023-04-23T19:16:41.056Z,97974.16
2023-04-23T19:19:09.971Z,97967.59
2023-04-23T19:21:38.807Z,97959.69
2023-04-23T19:24:08.123Z,97960.50
2023-04-23T19:26:37.102Z,97957.16
2023-04-23T19:29:06.117Z,97954.44
2023-04-23T19:31:35.077Z,97953.28
2023-04-23T19:34:10.638Z,97950.56
2023-04-23T19:36:39.333Z,97939.34
2023-04-23T19:39:08.255Z,97944.28
2023-04-23T19:41:37.080Z,97941.59
2023-04-23T19:44:06.292Z,97935.88
2023-04-23T19:46:35.066Z,97930.63
2023-04-23T19:49:10.663Z,97932.59
2023-04-23T19:51:42.246Z,97934.84
2023-04-23T19:54:14.211Z,97935.25
2023-04-23T19:56:42.941Z,97927.41
2023-04-23T19:59:13.965Z,97934.16
2023-04-23T20:01:42.881Z,97931.56
2023-04-23T20:04:12.627Z,97928.09
2023-04-23T20:06:47.073Z,97918.84
2023-04-23T20:09:19.290Z,97920.72
2023-04-23T20:11:48.174Z,97926.16
2023-04-23T20:14:16.891Z,97935.84
2023-04-23T20:16:46.558Z,97913.94
2023-04-23T20:19:15.993Z,97915.22
2023-04-23T20:21:46.838Z,97906.84
2023-04-23T20:24:16.233Z,97907.63
2023-04-23T20:26:45.025Z,97904.13
2023-04-23T20:29:13.774Z,97904.28
2023-04-23T20:31:42.670Z,97907.41
2023-04-23T20:34:11.695Z,97910.09
2023-04-23T20:36:40.478Z,97904.50
2023-04-23T20:39:11.071Z,97902.81
2023-04-23T20:41:40.242Z,97894.91
2023-04-23T20:44:09.378Z,97895.34
2023-04-23T20:46:38.785Z,97892.72
2023-04-23T20:49:07.514Z,97885.94
2023-04-23T20:51:36.307Z,97888.41
2023-04-23T20:54:06.750Z,97885.09
2023-04-23T20:56:36.933Z,97887.84
2023-04-23T20:59:06.432Z,97877.72
2023-04-23T21:01:35.298Z,97871.63
2023-04-23T21:04:04.238Z,97871.88
2023-04-23T21:06:33.526Z,97880.81
2023-04-23T21:09:43.050Z,97876.25
2023-04-23T21:12:13.651Z,97874.66
2023-04-23T21:14:44.661Z,97877.88
2023-04-23T21:17:13.394Z,97888.56
2023-04-23T21:19:42.443Z,97884.25
2023-04-23T21:22:11.415Z,97882.38
2023-04-23T21:24:40.218Z,97887.00
2023-04-23T21:27:10.869Z,97893.00
2023-04-23T21:29:41.386Z,97886.59
2023-04-23T21:32:10.317Z,97889.25
2023-04-23T21:34:39.100Z,97884.47
2023-04-23T21:37:08.246Z,97884.75
2023-04-23T21:39:36.988Z,97883.94
2023-04-23T21:42:06.785Z,97878.59
2023-04-23T21:44:37.775Z,97876.94
2023-04-23T21:47:08.162Z,97868.38
2023-04-23T21:52:39.346Z,97866.72
2023-04-23T21:55:10.172Z,97864.59
2023-04-23T21:57:40.771Z,97860.81
2023-04-23T22:00:15.941Z,97860.81
2023-04-23T22:02:47.636Z,97860.81
2023-04-23T22:05:20.147Z,97859.00
2023-04-23T22:07:50.046Z,97860.34
2023-04-23T22:10:20.327Z,97853.34
2023-04-23T22:12:52.059Z,97846.06
2023-04-23T22:15:21.509Z,97850.66
2023-04-23T22:17:51.737Z,97847.78
2023-04-23T22:20:23.740Z,97838.09
2023-04-23T22:22:52.418Z,97830.31
2023-04-23T22:25:21.043Z,97841.03
2023-04-23T22:27:49.846Z,97829.75
2023-04-23T22:30:18.637Z,97825.50
2023-04-23T22:32:47.679Z,97822.00
2023-04-23T22:35:17.789Z,97818.50
2023-04-23T22:37:46.950Z,97813.38
2023-04-23T22:40:15.667Z,97816.34
2023-04-23T22:42:44.353Z,97816.06
2023-04-23T22:45:13.185Z,97814.19
2023-04-23T22:47:42.102Z,97810.72
2023-04-23T22:50:12.207Z,97805.09
2023-04-23T22:52:43.706Z,97796.78
2023-04-23T22:55:12.947Z,97797.06
2023-04-23T22:57:41.719Z,97791.41
2023-04-23T23:00:13.015Z,97780.13
2023-04-23T23:02:41.939Z,97772.81
2023-04-23T23:05:11.111Z,97768.50
2023-04-23T23:07:41.289Z,97769.63
2023-04-23T23:10:11.270Z,97770.75
2023-04-23T23:12:40.315Z,97775.13
2023-04-23T23:15:10.548Z,97763.31
2023-04-23T23:17:39.292Z,97761.19
2023-04-23T23:20:11.990Z,97758.78
2023-04-23T23:22:42.501Z,97759.03
2023-04-23T23:25:11.800Z,97753.66
2023-04-23T23:27:40.578Z,97748.56
2023-04-23T23:30:10.925Z,97748.78
2023-04-23T23:32:39.731Z,97743.91
2023-04-23T23:35:09.415Z,97742.31
2023-04-23T23:37:38.053Z,97736.41
2023-04-23T23:40:11.431Z,97728.31
2023-04-23T23:42:40.154Z,97726.16
2023-04-23T23:45:11.517Z,97728.03
2023-04-23T23:47:40.479Z,97722.41
2023-04-23T23:50:10.408Z,97717.56
2023-04-23T23:52:39.030Z,97720.25
2023-04-23T23:55:10.381Z,97728.38
2023-04-23T23:57:39.019Z,97718.13
